Main page
METAR-TAF:

METAR-TAF

Airports :

Odessa International Airport

Odessa, Ukraine

latitude: 46-26N, longitude: 030-46E, elevation: 42 m

Current weather observation

The report was made 28 minutes ago, at 18:00 UTC
Calm wind
Temperature 7°C
Humidity 87%
Pressure 1023 hPa
Visibility 10 km or more
no clouds below 1500 m and no cumulonimbus

METAR: UKOO 041800Z 00000MPS CAVOK 07/05 Q1023 R16/090060 NOSIG

Time: 21:28 (18:28 UTC)

Forecast

The report was made 1 hour and 17 minutes ago, at 17:11 UTC
Forecast valid from 04 at 18 UTC to 05 at 18 UTC
Wind 6 kt from the West
Visibility: 6000 m
Broken clouds at a height of 1000 ft
Temporary
from 04 at 18 UTC to 04 at 21 UTC
Wind 6 kt from the North
Becoming
from 04 at 22 UTC to 04 at 23 UTC
Wind 14 kt from the Northeast with gusts up to 27 kt

TAF: UKOO 041711Z 0418/0518 27003MPS 6000 BKN010 TX10/0512Z TN02/0503Z TEMPO 0418/0421 35003MPS BECMG 0422/0423 04007G14MPS

Weather observations and forecasts of more than 4000 airports (METAR and TAF reports).

The available stations are represented by yellow and red dots on the map.

Hover mouse over dot to see the name of the station.

Then click to see weather observations and forecasts.

To change the map : click on the green buttons with a black cross to zoom in, on the green button with a dash to zoom out, or on the green arrows for adjacent maps.


METAR-TAF: